createdAt,value
2022-08-18T00:01:31.004Z,14.60
2022-08-18T00:04:15.390Z,14.77
2022-08-18T00:06:55.855Z,15.65
2022-08-18T00:09:32.018Z,14.25
2022-08-18T00:12:08.137Z,15.30
2022-08-18T00:14:41.060Z,14.68
2022-08-18T00:17:12.840Z,16.65
2022-08-18T00:19:47.760Z,15.10
2022-08-18T00:22:20.761Z,14.38
2022-08-18T00:24:54.151Z,14.15
2022-08-18T00:27:28.936Z,12.02
2022-08-18T00:30:01.819Z,14.40
2022-08-18T00:32:35.964Z,13.38
2022-08-18T00:35:09.741Z,14.10
2022-08-18T00:37:41.807Z,15.35
2022-08-18T00:40:18.022Z,14.93
2022-08-18T00:42:52.694Z,12.82
2022-08-18T00:45:27.388Z,11.27
2022-08-18T00:47:59.709Z,12.48
2022-08-18T00:50:38.011Z,12.35
2022-08-18T00:53:17.681Z,13.00
2022-08-18T00:55:54.359Z,13.27
2022-08-18T00:58:35.772Z,13.55
2022-08-18T01:01:07.689Z,13.00
2022-08-18T01:03:40.171Z,15.48
2022-08-18T01:06:32.433Z,14.13
2022-08-18T01:09:04.043Z,13.52
2022-08-18T01:11:38.159Z,14.05
2022-08-18T01:14:10.303Z,13.65
2022-08-18T01:17:03.008Z,14.63
2022-08-18T01:19:53.160Z,13.40
2022-08-18T01:22:29.060Z,12.57
2022-08-18T01:25:19.441Z,12.75
2022-08-18T01:27:51.237Z,12.18
2022-08-18T01:30:25.630Z,13.00
2022-08-18T01:32:57.561Z,13.05
2022-08-18T01:35:29.332Z,11.48
2022-08-18T01:38:13.572Z,12.15
2022-08-18T01:41:24.378Z,12.52
2022-08-18T01:43:38.149Z,12.68
2022-08-18T01:46:09.785Z,13.63
2022-08-18T01:48:42.583Z,13.88
2022-08-18T01:51:14.784Z,13.00
2022-08-18T01:53:46.690Z,13.05
2022-08-18T01:56:18.373Z,13.68
2022-08-18T01:58:50.018Z,13.05
2022-08-18T02:01:32.976Z,13.48
2022-08-18T02:04:33.829Z,14.10
2022-08-18T02:07:02.517Z,14.45
2022-08-18T02:09:37.537Z,13.10
2022-08-18T02:12:09.526Z,13.73
2022-08-18T02:14:41.209Z,14.63
2022-08-18T02:17:13.269Z,16.15
2022-08-18T02:19:45.827Z,12.73
2022-08-18T02:22:19.872Z,12.27
2022-08-18T02:24:51.585Z,11.90
2022-08-18T02:27:23.196Z,13.52
2022-08-18T02:29:54.934Z,13.02
2022-08-18T02:32:26.739Z,13.85
2022-08-18T02:35:01.942Z,14.20
2022-08-18T02:37:33.612Z,13.00
2022-08-18T02:40:06.064Z,12.65
2022-08-18T02:42:38.559Z,13.15
2022-08-18T02:45:10.534Z,13.25
2022-08-18T02:47:42.988Z,12.98
2022-08-18T02:50:16.965Z,13.25
2022-08-18T02:52:49.041Z,13.23
2022-08-18T02:55:22.446Z,12.55
2022-08-18T02:57:54.269Z,12.57
2022-08-18T03:00:26.132Z,12.70
2022-08-18T03:02:57.827Z,14.27
2022-08-18T03:05:30.423Z,13.02
2022-08-18T03:08:02.119Z,13.45
2022-08-18T03:10:34.329Z,13.50
2022-08-18T03:13:06.145Z,13.35
2022-08-18T03:15:37.828Z,14.40
2022-08-18T03:18:09.534Z,14.20
2022-08-18T03:20:44.173Z,14.23
2022-08-18T03:23:15.833Z,14.10
2022-08-18T03:25:49.310Z,13.90
2022-08-18T03:28:22.786Z,11.70
2022-08-18T03:30:54.987Z,15.82
2022-08-18T03:33:26.763Z,13.13
2022-08-18T03:36:05.135Z,12.20
2022-08-18T03:38:36.844Z,13.43
2022-08-18T03:41:09.244Z,13.50
2022-08-18T03:43:51.234Z,13.75
2022-08-18T03:46:23.630Z,12.90
2022-08-18T03:48:56.719Z,13.07
2022-08-18T03:51:32.013Z,12.48
2022-08-18T03:54:04.376Z,13.00
2022-08-18T03:56:38.338Z,13.43
2022-08-18T03:59:19.209Z,13.52
2022-08-18T04:01:51.804Z,13.60
2022-08-18T04:04:26.619Z,12.48
2022-08-18T04:07:10.985Z,13.88
2022-08-18T04:09:43.282Z,12.38
2022-08-18T04:12:17.035Z,12.55
2022-08-18T04:14:50.124Z,12.63
2022-08-18T04:17:25.413Z,14.07
2022-08-18T04:19:57.304Z,13.70
2022-08-18T04:25:42.250Z,12.23
2022-08-18T04:28:14.135Z,13.30
2022-08-18T04:30:45.905Z,12.85
2022-08-18T04:33:17.768Z,13.20
2022-08-18T04:35:49.557Z,13.13
2022-08-18T04:38:21.668Z,13.65
2022-08-18T04:40:53.495Z,13.27
2022-08-18T04:43:25.252Z,12.57
2022-08-18T04:46:01.886Z,14.07
2022-08-18T04:48:38.378Z,14.00
2022-08-18T04:52:36.966Z,13.30
2022-08-18T04:54:08.063Z,15.18
2022-08-18T04:56:39.723Z,13.23
2022-08-18T04:59:12.417Z,14.48
2022-08-18T05:01:45.811Z,14.00
2022-08-18T05:04:17.843Z,13.55
2022-08-18T05:06:49.557Z,14.45
2022-08-18T05:09:23.116Z,11.88
2022-08-18T05:11:54.951Z,12.35
2022-08-18T05:14:26.656Z,13.45
2022-08-18T05:16:59.474Z,13.63
2022-08-18T05:19:31.186Z,15.40
2022-08-18T05:22:03.645Z,17.02
2022-08-18T05:24:37.055Z,13.48
2022-08-18T05:27:09.390Z,13.38
2022-08-18T05:29:42.020Z,13.60
2022-08-18T05:32:30.400Z,14.20
2022-08-18T05:35:12.402Z,13.27
2022-08-18T05:38:05.917Z,13.02
2022-08-18T05:40:37.728Z,13.15
2022-08-18T05:43:09.466Z,12.43
2022-08-18T05:45:41.338Z,12.18
2022-08-18T05:48:14.143Z,11.73
2022-08-18T05:50:45.896Z,11.95
2022-08-18T05:53:18.475Z,12.63
2022-08-18T05:56:21.145Z,12.23
2022-08-18T05:58:55.453Z,11.35
2022-08-18T06:01:33.653Z,11.52
2022-08-18T06:04:07.323Z,9.98
2022-08-18T06:06:40.512Z,10.35
2022-08-18T06:09:22.494Z,10.23
2022-08-18T06:11:55.904Z,10.52
2022-08-18T06:14:27.606Z,10.05
2022-08-18T06:17:33.081Z,10.40
2022-08-18T06:20:14.426Z,10.32
2022-08-18T06:22:56.340Z,9.98
2022-08-18T06:25:40.656Z,11.15
2022-08-18T06:28:15.840Z,9.50
2022-08-18T06:30:57.015Z,8.32
2022-08-18T06:33:41.482Z,7.97
2022-08-18T06:36:34.875Z,8.45
2022-08-18T06:39:11.870Z,11.00
2022-08-18T06:41:45.842Z,7.55
2022-08-18T06:44:42.589Z,9.02
2022-08-18T06:47:36.105Z,8.75
2022-08-18T06:50:38.577Z,7.88
2022-08-18T06:53:27.569Z,7.55
2022-08-18T06:56:32.128Z,7.88
2022-08-18T06:59:25.697Z,7.20
2022-08-18T07:02:27.058Z,7.13
2022-08-18T07:05:05.631Z,8.57
2022-08-18T07:07:40.747Z,6.65
2022-08-18T07:10:15.638Z,6.72
2022-08-18T07:12:47.294Z,7.53
2022-08-18T07:15:24.259Z,7.03
2022-08-18T07:18:02.489Z,6.25
2022-08-18T07:20:45.453Z,6.15
2022-08-18T07:23:44.209Z,7.70
2022-08-18T07:26:17.222Z,7.00
2022-08-18T07:28:50.326Z,6.40
2022-08-18T07:31:49.148Z,7.97
2022-08-18T07:34:27.953Z,5.60
2022-08-18T07:37:03.371Z,5.53
2022-08-18T07:39:38.707Z,5.30
2022-08-18T07:42:54.279Z,5.65
2022-08-18T07:45:42.249Z,6.10
2022-08-18T07:48:38.626Z,4.85
2022-08-18T07:51:30.407Z,7.07
2022-08-18T07:54:47.178Z,4.70
2022-08-18T07:57:25.286Z,4.60
2022-08-18T08:00:20.739Z,4.88
2022-08-18T08:03:17.125Z,4.65
2022-08-18T08:05:56.656Z,6.72
2022-08-18T08:08:36.206Z,5.75
2022-08-18T08:11:13.196Z,5.45
2022-08-18T08:13:56.488Z,4.95
2022-08-18T08:16:58.139Z,5.47
2022-08-18T08:20:00.164Z,5.05
2022-08-18T08:22:44.455Z,5.22
2022-08-18T08:25:46.450Z,5.28
2022-08-18T08:28:46.910Z,4.90
2022-08-18T08:31:42.386Z,6.35
2022-08-18T08:34:24.890Z,4.75
2022-08-18T08:37:05.614Z,4.65
2022-08-18T08:39:46.782Z,6.65
2022-08-18T08:42:30.870Z,4.97
2022-08-18T08:45:11.066Z,5.25
2022-08-18T08:48:11.573Z,5.93
2022-08-18T08:50:53.920Z,5.20
2022-08-18T08:53:40.285Z,5.78
2022-08-18T08:56:14.764Z,6.90
2022-08-18T08:58:48.670Z,4.85
2022-08-18T09:01:57.250Z,5.65
2022-08-18T09:04:29.387Z,7.30
2022-08-18T09:07:38.405Z,5.68
2022-08-18T09:10:35.112Z,5.53
2022-08-18T09:13:38.645Z,6.40
2022-08-18T09:16:38.631Z,5.95
2022-08-18T09:19:22.045Z,5.60
2022-08-18T09:22:24.950Z,5.45
2022-08-18T09:24:59.185Z,6.15
2022-08-18T09:28:09.990Z,12.30
2022-08-18T09:30:45.225Z,6.15
2022-08-18T09:33:29.464Z,5.82
2022-08-18T09:36:28.363Z,6.40
2022-08-18T09:39:32.731Z,6.20
2022-08-18T09:42:17.175Z,6.38
2022-08-18T09:44:51.209Z,6.20
2022-08-18T09:47:24.405Z,6.43
2022-08-18T09:50:05.302Z,6.15
2022-08-18T09:52:47.233Z,6.22
2022-08-18T09:55:19.973Z,5.38
2022-08-18T09:58:15.083Z,6.75
2022-08-18T10:01:21.605Z,6.45
2022-08-18T10:04:21.579Z,6.40
2022-08-18T10:06:53.860Z,7.25
2022-08-18T10:09:53.455Z,6.50
2022-08-18T10:13:01.602Z,7.20
2022-08-18T10:15:40.747Z,7.32
2022-08-18T10:18:50.133Z,6.57
2022-08-18T10:21:31.460Z,7.28
2022-08-18T10:24:29.895Z,7.18
2022-08-18T10:26:55.391Z,7.45
2022-08-18T10:29:27.227Z,6.95
2022-08-18T10:31:59.736Z,6.70
2022-08-18T10:34:37.472Z,6.55
2022-08-18T10:37:19.435Z,6.88
2022-08-18T10:39:52.129Z,7.20
2022-08-18T10:42:32.102Z,8.13
2022-08-18T10:45:10.129Z,9.30
2022-08-18T10:47:43.148Z,7.07
2022-08-18T10:50:21.071Z,7.95
2022-08-18T10:53:40.614Z,7.78
2022-08-18T10:56:11.288Z,7.88
2022-08-18T10:59:02.272Z,23.25
2022-08-18T11:01:50.764Z,11.95
2022-08-18T11:07:23.911Z,7.50
2022-08-18T11:13:08.837Z,7.75
2022-08-18T11:16:15.473Z,6.88
2022-08-18T11:18:52.895Z,7.70
2022-08-18T11:21:32.804Z,7.40
2022-08-18T11:24:04.799Z,7.63
2022-08-18T11:26:42.116Z,9.23
2022-08-18T11:29:32.798Z,7.35
2022-08-18T11:35:44.204Z,7.68
2022-08-18T11:38:20.818Z,7.90
2022-08-18T11:41:11.909Z,7.63
2022-08-18T11:46:39.122Z,8.32
2022-08-18T11:49:26.013Z,7.30
2022-08-18T11:52:26.212Z,7.78
2022-08-18T11:55:14.396Z,7.47
2022-08-18T11:57:59.750Z,7.95
2022-08-18T12:00:43.591Z,7.22
2022-08-18T12:03:38.055Z,8.02
2022-08-18T12:06:19.378Z,11.20
2022-08-18T12:09:19.989Z,7.25
2022-08-18T12:12:28.139Z,6.57
2022-08-18T12:18:05.454Z,7.70
2022-08-18T12:20:37.191Z,6.50
2022-08-18T12:23:09.096Z,7.30
2022-08-18T12:25:40.878Z,8.00
2022-08-18T12:28:12.639Z,7.03
2022-08-18T12:30:44.349Z,7.60
2022-08-18T12:33:16.696Z,7.05
2022-08-18T12:35:57.242Z,7.25
2022-08-18T12:38:36.487Z,6.88
2022-08-18T12:41:11.989Z,7.05
2022-08-18T12:43:43.911Z,6.68
2022-08-18T12:46:30.480Z,8.10
2022-08-18T12:49:04.031Z,7.60
2022-08-18T12:51:37.468Z,7.03
2022-08-18T12:54:10.433Z,8.13
2022-08-18T12:56:44.427Z,8.43
2022-08-18T12:59:16.335Z,7.63
2022-08-18T13:01:49.366Z,7.32
2022-08-18T13:04:21.231Z,7.95
2022-08-18T13:07:01.896Z,7.45
2022-08-18T13:09:53.105Z,7.95
2022-08-18T13:12:26.141Z,7.30
2022-08-18T13:14:59.304Z,7.38
2022-08-18T13:17:33.608Z,7.43
2022-08-18T13:20:13.765Z,7.22
2022-08-18T13:22:45.846Z,7.97
2022-08-18T13:25:32.176Z,6.90
2022-08-18T13:28:09.670Z,6.38
2022-08-18T13:30:41.995Z,7.50
2022-08-18T13:33:34.016Z,7.78
2022-08-18T13:36:06.104Z,7.55
2022-08-18T13:38:37.909Z,7.95
2022-08-18T13:41:09.686Z,7.80
2022-08-18T13:43:48.092Z,7.68
2022-08-18T13:46:24.225Z,8.45
2022-08-18T13:49:03.077Z,8.07
2022-08-18T13:51:35.019Z,7.93
2022-08-18T13:54:27.021Z,8.27
2022-08-18T13:57:00.318Z,8.52
2022-08-18T13:59:33.246Z,18.48
2022-08-18T14:02:09.070Z,9.48
2022-08-18T14:04:40.939Z,11.00
2022-08-18T14:07:19.192Z,19.85
2022-08-18T14:09:59.220Z,9.57
2022-08-18T14:12:37.482Z,7.57
2022-08-18T14:15:13.001Z,7.18
2022-08-18T14:17:45.907Z,7.47
2022-08-18T14:20:38.669Z,5.80
2022-08-18T14:23:38.528Z,5.63
2022-08-18T14:26:34.305Z,7.75
2022-08-18T14:29:07.412Z,6.45
2022-08-18T14:31:43.267Z,6.63
2022-08-18T14:34:21.853Z,5.82
2022-08-18T14:36:59.900Z,7.40
2022-08-18T14:39:31.627Z,6.40
2022-08-18T14:42:04.450Z,6.75
2022-08-18T14:44:38.426Z,6.25
2022-08-18T14:47:13.389Z,5.10
2022-08-18T14:49:57.560Z,5.22
2022-08-18T14:52:29.482Z,5.40
2022-08-18T14:55:01.951Z,5.03
2022-08-18T14:57:33.683Z,5.47
2022-08-18T15:00:12.647Z,5.93
2022-08-18T15:02:45.165Z,6.07
2022-08-18T15:05:24.399Z,6.05
2022-08-18T15:07:56.400Z,4.72
2022-08-18T15:10:29.418Z,11.32
2022-08-18T15:13:02.961Z,4.85
2022-08-18T15:15:42.247Z,4.65
2022-08-18T15:18:23.854Z,4.53
2022-08-18T15:21:34.941Z,4.70
2022-08-18T15:24:27.077Z,4.45
2022-08-18T15:27:03.286Z,4.68
2022-08-18T15:29:41.484Z,4.70
2022-08-18T15:32:17.726Z,4.65
2022-08-18T15:34:51.277Z,8.95
2022-08-18T15:37:25.813Z,5.22
2022-08-18T15:40:30.596Z,3.83
2022-08-18T15:43:09.897Z,4.00
2022-08-18T15:45:51.123Z,4.13
2022-08-18T15:48:29.736Z,3.70
2022-08-18T15:51:11.747Z,4.25
2022-08-18T15:53:44.731Z,3.63
2022-08-18T15:56:20.910Z,4.03
2022-08-18T15:58:52.873Z,3.28
2022-08-18T16:01:32.080Z,3.42
2022-08-18T16:04:05.742Z,3.67
2022-08-18T16:06:37.601Z,4.47
2022-08-18T16:09:10.913Z,3.80
2022-08-18T16:11:42.689Z,3.47
2022-08-18T16:14:15.389Z,3.60
2022-08-18T16:16:47.057Z,4.97
2022-08-18T16:19:18.807Z,3.28
2022-08-18T16:21:57.487Z,4.68
2022-08-18T16:24:29.253Z,4.05
2022-08-18T16:27:00.902Z,3.90
2022-08-18T16:29:33.304Z,3.60
2022-08-18T16:32:05.256Z,3.88
2022-08-18T16:34:48.272Z,4.15
2022-08-18T16:37:20.069Z,3.67
2022-08-18T16:39:52.079Z,4.68
2022-08-18T16:42:23.828Z,7.78
2022-08-18T16:44:55.844Z,4.18
2022-08-18T16:47:27.538Z,3.60
2022-08-18T16:49:59.388Z,4.18
2022-08-18T16:52:31.196Z,3.75
2022-08-18T16:55:05.187Z,3.85
2022-08-18T16:57:59.741Z,4.40
2022-08-18T17:00:54.990Z,4.28
2022-08-18T17:03:45.699Z,4.35
2022-08-18T17:06:18.338Z,6.25
2022-08-18T17:08:50.400Z,4.28
2022-08-18T17:11:22.174Z,5.10
2022-08-18T17:13:55.216Z,4.35
2022-08-18T17:16:27.492Z,5.53
2022-08-18T17:19:00.326Z,4.22
2022-08-18T17:24:07.205Z,4.40
2022-08-18T17:26:58.453Z,4.40
2022-08-18T17:29:48.302Z,5.13
2022-08-18T17:32:23.627Z,4.78
2022-08-18T17:35:04.377Z,4.53
2022-08-18T17:37:37.535Z,5.07
2022-08-18T17:40:15.596Z,4.53
2022-08-18T17:42:51.560Z,5.00
2022-08-18T17:45:23.745Z,8.52
2022-08-18T17:48:03.707Z,6.07
2022-08-18T17:51:10.401Z,5.88
2022-08-18T17:53:42.148Z,5.72
2022-08-18T17:56:23.352Z,5.05
2022-08-18T17:59:45.838Z,6.95
2022-08-18T18:02:31.406Z,6.88
2022-08-18T18:05:08.117Z,5.30
2022-08-18T18:07:52.063Z,7.18
2022-08-18T18:10:25.940Z,5.22
2022-08-18T18:13:11.372Z,6.05
2022-08-18T18:15:48.349Z,4.97
2022-08-18T18:18:42.904Z,7.20
2022-08-18T18:21:14.492Z,6.18
2022-08-18T18:23:48.007Z,6.03
2022-08-18T18:26:28.468Z,7.18
2022-08-18T18:29:20.630Z,7.78
2022-08-18T18:31:55.508Z,6.30
2022-08-18T18:34:43.649Z,9.30
2022-08-18T18:37:26.003Z,8.00
2022-08-18T18:40:02.770Z,7.78
2022-08-18T18:42:35.257Z,10.90
2022-08-18T18:45:09.538Z,9.65
2022-08-18T18:47:47.725Z,8.90
2022-08-18T18:50:55.847Z,7.57
2022-08-18T18:53:51.883Z,6.50
2022-08-18T18:56:28.139Z,6.60
2022-08-18T18:59:05.961Z,10.13
2022-08-18T19:01:56.628Z,10.30
2022-08-18T19:04:38.746Z,11.02
2022-08-18T19:07:21.538Z,9.40
2022-08-18T19:10:03.464Z,9.40
2022-08-18T19:12:54.126Z,12.43
2022-08-18T19:15:26.093Z,9.88
2022-08-18T19:18:18.508Z,8.35
2022-08-18T19:22:02.142Z,9.70
2022-08-18T19:24:00.294Z,9.23
2022-08-18T19:26:37.640Z,10.38
2022-08-18T19:29:13.416Z,11.27
2022-08-18T19:31:49.321Z,13.30
2022-08-18T19:34:32.895Z,11.65
2022-08-18T19:37:30.988Z,10.05
2022-08-18T19:40:09.699Z,12.45
2022-08-18T19:42:51.878Z,10.88
2022-08-18T19:45:33.246Z,12.15
2022-08-18T19:48:07.885Z,12.38
2022-08-18T19:50:51.579Z,13.43
2022-08-18T19:53:46.507Z,12.52
2022-08-18T19:56:32.838Z,11.18
2022-08-18T19:59:34.115Z,12.70
2022-08-18T20:02:27.670Z,12.13
2022-08-18T20:05:16.495Z,11.55
2022-08-18T20:08:06.306Z,11.57
2022-08-18T20:10:49.507Z,13.10
2022-08-18T20:13:33.877Z,12.73
2022-08-18T20:16:10.742Z,13.77
2022-08-18T20:18:47.508Z,12.85
2022-08-18T20:21:20.573Z,12.55
2022-08-18T20:24:06.952Z,12.85
2022-08-18T20:26:41.457Z,13.00
2022-08-18T20:29:34.644Z,12.77
2022-08-18T20:32:06.899Z,13.90
2022-08-18T20:34:38.911Z,12.48
2022-08-18T20:37:10.617Z,13.55
2022-08-18T20:39:43.550Z,14.00
2022-08-18T20:42:21.403Z,14.23
2022-08-18T20:44:59.848Z,13.23
2022-08-18T20:47:48.317Z,13.63
2022-08-18T20:50:48.510Z,13.73
2022-08-18T20:53:49.902Z,14.90
2022-08-18T20:56:44.266Z,14.07
2022-08-18T20:59:21.537Z,13.10
2022-08-18T21:02:04.460Z,14.48
2022-08-18T21:04:50.093Z,14.15
2022-08-18T21:07:27.399Z,14.02
2022-08-18T21:10:20.206Z,14.05
2022-08-18T21:12:53.874Z,14.68
2022-08-18T21:15:27.815Z,14.52
2022-08-18T21:18:01.315Z,15.60
2022-08-18T21:20:33.035Z,14.85
2022-08-18T21:23:13.881Z,15.60
2022-08-18T21:25:53.972Z,15.30
2022-08-18T21:28:26.833Z,14.18
2022-08-18T21:31:42.205Z,13.63
2022-08-18T21:33:54.894Z,14.75
2022-08-18T21:36:31.770Z,14.55
2022-08-18T21:39:11.100Z,14.20
2022-08-18T21:41:46.908Z,14.18
2022-08-18T21:44:38.523Z,13.40
2022-08-18T21:47:26.074Z,14.50
2022-08-18T21:50:02.452Z,15.10
2022-08-18T21:52:35.193Z,14.77
2022-08-18T21:55:17.252Z,14.65
2022-08-18T21:57:50.376Z,13.93
2022-08-18T22:00:26.934Z,14.35
2022-08-18T22:03:20.822Z,14.40
2022-08-18T22:06:00.790Z,13.30
2022-08-18T22:08:33.884Z,13.32
2022-08-18T22:11:59.372Z,15.07
2022-08-18T22:14:25.464Z,18.27
2022-08-18T22:17:51.200Z,16.00
2022-08-18T22:20:46.812Z,15.88
2022-08-18T22:23:42.835Z,16.60
2022-08-18T22:26:17.187Z,17.20
2022-08-18T22:29:01.007Z,16.70
2022-08-18T22:31:54.890Z,16.63
2022-08-18T22:34:29.228Z,17.98
2022-08-18T22:37:10.050Z,17.38
2022-08-18T22:39:56.729Z,17.10
2022-08-18T22:42:32.973Z,17.48
2022-08-18T22:45:07.617Z,18.83
2022-08-18T22:47:43.120Z,16.58
2022-08-18T22:50:17.159Z,20.85
2022-08-18T22:52:49.711Z,17.75
2022-08-18T22:55:23.922Z,17.85
2022-08-18T22:57:56.977Z,18.73
2022-08-18T23:00:28.849Z,19.52
2022-08-18T23:03:01.231Z,18.83
2022-08-18T23:05:32.976Z,18.55
2022-08-18T23:08:04.999Z,20.08
2022-08-18T23:10:36.675Z,20.02
2022-08-18T23:13:08.304Z,19.17
2022-08-18T23:15:49.001Z,20.00
2022-08-18T23:18:21.479Z,19.02
2022-08-18T23:21:04.864Z,18.02
2022-08-18T23:23:36.508Z,19.02
2022-08-18T23:26:11.379Z,20.90
2022-08-18T23:28:46.686Z,21.75
2022-08-18T23:31:18.425Z,20.00
2022-08-18T23:33:50.145Z,24.90
2022-08-18T23:36:21.857Z,18.67
2022-08-18T23:38:54.048Z,18.95
2022-08-18T23:41:25.783Z,19.48
2022-08-18T23:43:59.223Z,21.15
2022-08-18T23:46:31.939Z,20.10
2022-08-18T23:49:04.184Z,20.88
2022-08-18T23:51:37.564Z,23.15
2022-08-18T23:54:12.471Z,19.85
2022-08-18T23:56:44.130Z,25.15
2022-08-18T23:59:16.700Z,23.42
